sensor_id;sensor_type;location;lat;lon;timestamp;P1;durP1;ratioP1;P2;durP2;ratioP2
52015;SDS011;38032;53.326;6.472;2023-03-21T00:00:46;20.02;;;12.68;;
52015;SDS011;38032;53.326;6.472;2023-03-21T00:03:12;22.27;;;13.48;;
52015;SDS011;38032;53.326;6.472;2023-03-21T00:05:41;16.75;;;11.10;;
52015;SDS011;38032;53.326;6.472;2023-03-21T00:08:13;20.02;;;12.57;;
52015;SDS011;38032;53.326;6.472;2023-03-21T00:10:40;15.63;;;10.50;;
52015;SDS011;38032;53.326;6.472;2023-03-21T00:13:06;22.60;;;13.15;;
52015;SDS011;38032;53.326;6.472;2023-03-21T00:15:32;17.75;;;11.32;;
52015;SDS011;38032;53.326;6.472;2023-03-21T00:17:58;17.25;;;10.90;;
52015;SDS011;38032;53.326;6.472;2023-03-21T00:20:29;14.52;;;10.00;;
52015;SDS011;38032;53.326;6.472;2023-03-21T00:22:55;16.48;;;11.02;;
52015;SDS011;38032;53.326;6.472;2023-03-21T00:25:21;16.52;;;10.85;;
52015;SDS011;38032;53.326;6.472;2023-03-21T00:27:47;18.08;;;10.82;;
52015;SDS011;38032;53.326;6.472;2023-03-21T00:30:13;17.33;;;10.95;;
52015;SDS011;38032;53.326;6.472;2023-03-21T00:32:40;17.23;;;10.65;;
52015;SDS011;38032;53.326;6.472;2023-03-21T00:35:06;14.73;;;10.60;;
52015;SDS011;38032;53.326;6.472;2023-03-21T00:37:32;16.67;;;9.52;;
52015;SDS011;38032;53.326;6.472;2023-03-21T00:39:58;14.48;;;9.75;;
52015;SDS011;38032;53.326;6.472;2023-03-21T00:42:24;13.52;;;9.57;;
52015;SDS011;38032;53.326;6.472;2023-03-21T00:44:50;14.32;;;9.63;;
52015;SDS011;38032;53.326;6.472;2023-03-21T00:47:16;15.52;;;10.65;;
52015;SDS011;38032;53.326;6.472;2023-03-21T00:49:42;12.65;;;8.93;;
52015;SDS011;38032;53.326;6.472;2023-03-21T00:52:08;18.35;;;10.40;;
52015;SDS011;38032;53.326;6.472;2023-03-21T00:54:35;16.63;;;9.77;;
52015;SDS011;38032;53.326;6.472;2023-03-21T00:57:02;18.00;;;9.93;;
52015;SDS011;38032;53.326;6.472;2023-03-21T00:59:29;16.88;;;10.05;;
52015;SDS011;38032;53.326;6.472;2023-03-21T01:01:55;17.40;;;10.05;;
52015;SDS011;38032;53.326;6.472;2023-03-21T01:04:24;17.63;;;10.80;;
52015;SDS011;38032;53.326;6.472;2023-03-21T01:06:51;19.83;;;10.90;;
52015;SDS011;38032;53.326;6.472;2023-03-21T01:09:21;18.65;;;9.82;;
52015;SDS011;38032;53.326;6.472;2023-03-21T01:11:48;21.35;;;11.18;;
52015;SDS011;38032;53.326;6.472;2023-03-21T01:14:16;18.88;;;10.15;;
52015;SDS011;38032;53.326;6.472;2023-03-21T01:16:43;22.75;;;11.48;;
52015;SDS011;38032;53.326;6.472;2023-03-21T01:19:11;23.90;;;11.38;;
52015;SDS011;38032;53.326;6.472;2023-03-21T01:21:40;21.42;;;11.63;;
52015;SDS011;38032;53.326;6.472;2023-03-21T01:24:06;16.45;;;10.20;;
52015;SDS011;38032;53.326;6.472;2023-03-21T01:26:32;18.58;;;9.98;;
52015;SDS011;38032;53.326;6.472;2023-03-21T01:28:58;25.10;;;12.43;;
52015;SDS011;38032;53.326;6.472;2023-03-21T01:31:24;33.55;;;15.70;;
52015;SDS011;38032;53.326;6.472;2023-03-21T01:33:50;21.63;;;11.93;;
52015;SDS011;38032;53.326;6.472;2023-03-21T01:36:19;28.35;;;12.52;;
52015;SDS011;38032;53.326;6.472;2023-03-21T01:38:46;34.17;;;15.75;;
52015;SDS011;38032;53.326;6.472;2023-03-21T01:41:19;33.22;;;15.57;;
52015;SDS011;38032;53.326;6.472;2023-03-21T01:43:45;29.15;;;13.65;;
52015;SDS011;38032;53.326;6.472;2023-03-21T01:48:58;28.85;;;14.73;;
52015;SDS011;38032;53.326;6.472;2023-03-21T01:51:28;32.95;;;15.10;;
52015;SDS011;38032;53.326;6.472;2023-03-21T01:53:56;23.42;;;12.93;;
52015;SDS011;38032;53.326;6.472;2023-03-21T01:56:33;20.67;;;11.60;;
52015;SDS011;38032;53.326;6.472;2023-03-21T01:59:08;21.90;;;11.27;;
52015;SDS011;38032;53.326;6.472;2023-03-21T02:01:37;21.17;;;11.20;;
52015;SDS011;38032;53.326;6.472;2023-03-21T02:04:06;21.80;;;11.80;;
52015;SDS011;38032;53.326;6.472;2023-03-21T02:09:14;18.52;;;10.98;;
52015;SDS011;38032;53.326;6.472;2023-03-21T02:11:43;17.90;;;9.70;;
52015;SDS011;38032;53.326;6.472;2023-03-21T02:14:12;17.80;;;10.00;;
52015;SDS011;38032;53.326;6.472;2023-03-21T02:22:12;19.75;;;10.20;;
52015;SDS011;38032;53.326;6.472;2023-03-21T02:24:55;19.70;;;10.60;;
52015;SDS011;38032;53.326;6.472;2023-03-21T02:27:50;22.63;;;12.13;;
52015;SDS011;38032;53.326;6.472;2023-03-21T02:30:34;24.00;;;12.85;;
52015;SDS011;38032;53.326;6.472;2023-03-21T02:33:24;22.88;;;12.45;;
52015;SDS011;38032;53.326;6.472;2023-03-21T02:39:25;22.98;;;12.65;;
52015;SDS011;38032;53.326;6.472;2023-03-21T02:44:45;17.13;;;9.65;;
52015;SDS011;38032;53.326;6.472;2023-03-21T02:47:21;22.30;;;11.15;;
52015;SDS011;38032;53.326;6.472;2023-03-21T02:54:55;21.60;;;12.45;;
52015;SDS011;38032;53.326;6.472;2023-03-21T02:57:22;16.67;;;9.63;;
52015;SDS011;38032;53.326;6.472;2023-03-21T02:59:49;17.15;;;10.68;;
52015;SDS011;38032;53.326;6.472;2023-03-21T03:02:16;20.00;;;11.10;;
52015;SDS011;38032;53.326;6.472;2023-03-21T03:04:47;17.77;;;10.43;;
52015;SDS011;38032;53.326;6.472;2023-03-21T03:07:19;20.08;;;11.40;;
52015;SDS011;38032;53.326;6.472;2023-03-21T03:10:09;15.93;;;9.02;;
52015;SDS011;38032;53.326;6.472;2023-03-21T03:12:52;17.52;;;10.35;;
52015;SDS011;38032;53.326;6.472;2023-03-21T03:15:46;18.30;;;10.50;;
52015;SDS011;38032;53.326;6.472;2023-03-21T03:20:59;15.27;;;9.88;;
52015;SDS011;38032;53.326;6.472;2023-03-21T03:23:33;16.58;;;9.68;;
52015;SDS011;38032;53.326;6.472;2023-03-21T03:26:12;14.07;;;8.30;;
52015;SDS011;38032;53.326;6.472;2023-03-21T03:28:43;14.90;;;9.10;;
52015;SDS011;38032;53.326;6.472;2023-03-21T03:31:15;11.95;;;7.53;;
52015;SDS011;38032;53.326;6.472;2023-03-21T03:33:47;15.63;;;9.38;;
52015;SDS011;38032;53.326;6.472;2023-03-21T03:36:16;13.95;;;8.65;;
52015;SDS011;38032;53.326;6.472;2023-03-21T03:38:45;13.45;;;8.88;;
52015;SDS011;38032;53.326;6.472;2023-03-21T03:41:18;12.88;;;8.07;;
52015;SDS011;38032;53.326;6.472;2023-03-21T03:43:52;15.65;;;10.27;;
52015;SDS011;38032;53.326;6.472;2023-03-21T03:46:24;13.05;;;8.68;;
52015;SDS011;38032;53.326;6.472;2023-03-21T03:48:53;10.98;;;7.97;;
52015;SDS011;38032;53.326;6.472;2023-03-21T03:51:25;16.13;;;10.20;;
52015;SDS011;38032;53.326;6.472;2023-03-21T03:53:56;15.18;;;10.45;;
52015;SDS011;38032;53.326;6.472;2023-03-21T03:56:27;16.08;;;10.60;;
52015;SDS011;38032;53.326;6.472;2023-03-21T03:58:55;17.23;;;10.88;;
52015;SDS011;38032;53.326;6.472;2023-03-21T04:01:21;17.67;;;11.20;;
52015;SDS011;38032;53.326;6.472;2023-03-21T04:03:47;15.98;;;10.20;;
52015;SDS011;38032;53.326;6.472;2023-03-21T04:06:14;14.98;;;9.25;;
52015;SDS011;38032;53.326;6.472;2023-03-21T04:08:41;16.67;;;10.23;;
52015;SDS011;38032;53.326;6.472;2023-03-21T04:11:07;12.07;;;8.20;;
52015;SDS011;38032;53.326;6.472;2023-03-21T04:13:35;18.73;;;10.73;;
52015;SDS011;38032;53.326;6.472;2023-03-21T04:16:00;15.35;;;10.82;;
52015;SDS011;38032;53.326;6.472;2023-03-21T04:18:27;16.13;;;10.27;;
52015;SDS011;38032;53.326;6.472;2023-03-21T04:20:53;16.52;;;9.68;;
52015;SDS011;38032;53.326;6.472;2023-03-21T04:23:18;16.08;;;10.30;;
52015;SDS011;38032;53.326;6.472;2023-03-21T04:25:45;16.02;;;10.20;;
52015;SDS011;38032;53.326;6.472;2023-03-21T04:28:11;16.85;;;10.45;;
52015;SDS011;38032;53.326;6.472;2023-03-21T04:30:37;15.52;;;10.23;;
52015;SDS011;38032;53.326;6.472;2023-03-21T04:33:03;17.25;;;10.32;;
52015;SDS011;38032;53.326;6.472;2023-03-21T04:35:29;15.57;;;10.38;;
52015;SDS011;38032;53.326;6.472;2023-03-21T04:37:55;16.20;;;10.90;;
52015;SDS011;38032;53.326;6.472;2023-03-21T04:40:21;16.23;;;10.07;;
52015;SDS011;38032;53.326;6.472;2023-03-21T04:42:48;14.63;;;9.60;;
52015;SDS011;38032;53.326;6.472;2023-03-21T04:45:14;15.25;;;10.07;;
52015;SDS011;38032;53.326;6.472;2023-03-21T04:47:41;15.40;;;9.43;;
52015;SDS011;38032;53.326;6.472;2023-03-21T04:50:08;14.57;;;9.57;;
52015;SDS011;38032;53.326;6.472;2023-03-21T04:52:35;16.33;;;10.38;;
52015;SDS011;38032;53.326;6.472;2023-03-21T04:55:01;21.92;;;11.98;;
52015;SDS011;38032;53.326;6.472;2023-03-21T04:57:27;17.38;;;10.35;;
52015;SDS011;38032;53.326;6.472;2023-03-21T04:59:53;19.05;;;10.98;;
52015;SDS011;38032;53.326;6.472;2023-03-21T05:02:19;15.73;;;9.13;;
52015;SDS011;38032;53.326;6.472;2023-03-21T05:04:45;18.48;;;10.82;;
52015;SDS011;38032;53.326;6.472;2023-03-21T05:07:11;16.92;;;9.77;;
52015;SDS011;38032;53.326;6.472;2023-03-21T05:09:37;14.95;;;9.20;;
52015;SDS011;38032;53.326;6.472;2023-03-21T05:12:03;16.33;;;8.60;;
52015;SDS011;38032;53.326;6.472;2023-03-21T05:14:29;17.95;;;9.90;;
52015;SDS011;38032;53.326;6.472;2023-03-21T05:16:54;13.57;;;8.35;;
52015;SDS011;38032;53.326;6.472;2023-03-21T05:19:23;13.77;;;9.00;;
52015;SDS011;38032;53.326;6.472;2023-03-21T05:22:00;13.88;;;8.05;;
52015;SDS011;38032;53.326;6.472;2023-03-21T05:24:28;14.32;;;8.93;;
52015;SDS011;38032;53.326;6.472;2023-03-21T05:26:55;14.55;;;8.88;;
52015;SDS011;38032;53.326;6.472;2023-03-21T05:29:26;14.93;;;8.65;;
52015;SDS011;38032;53.326;6.472;2023-03-21T05:31:53;12.65;;;7.93;;
52015;SDS011;38032;53.326;6.472;2023-03-21T05:34:20;14.85;;;8.52;;
52015;SDS011;38032;53.326;6.472;2023-03-21T05:36:46;13.00;;;7.68;;
52015;SDS011;38032;53.326;6.472;2023-03-21T05:39:12;14.35;;;9.32;;
52015;SDS011;38032;53.326;6.472;2023-03-21T05:41:38;11.15;;;7.32;;
52015;SDS011;38032;53.326;6.472;2023-03-21T05:44:03;13.63;;;7.97;;
52015;SDS011;38032;53.326;6.472;2023-03-21T05:46:29;12.48;;;8.63;;
52015;SDS011;38032;53.326;6.472;2023-03-21T05:48:55;12.77;;;8.10;;
52015;SDS011;38032;53.326;6.472;2023-03-21T05:51:21;14.32;;;7.55;;
52015;SDS011;38032;53.326;6.472;2023-03-21T05:53:47;11.68;;;7.50;;
52015;SDS011;38032;53.326;6.472;2023-03-21T05:56:13;11.82;;;8.00;;
52015;SDS011;38032;53.326;6.472;2023-03-21T05:58:39;13.82;;;8.07;;
52015;SDS011;38032;53.326;6.472;2023-03-21T06:01:05;12.32;;;8.10;;
52015;SDS011;38032;53.326;6.472;2023-03-21T06:03:31;13.25;;;7.97;;
52015;SDS011;38032;53.326;6.472;2023-03-21T06:05:57;13.88;;;8.25;;
52015;SDS011;38032;53.326;6.472;2023-03-21T06:08:23;10.75;;;7.22;;
52015;SDS011;38032;53.326;6.472;2023-03-21T06:10:49;15.15;;;9.02;;
52015;SDS011;38032;53.326;6.472;2023-03-21T06:13:15;12.35;;;8.27;;
52015;SDS011;38032;53.326;6.472;2023-03-21T06:15:41;15.10;;;9.65;;
52015;SDS011;38032;53.326;6.472;2023-03-21T06:18:07;13.60;;;8.80;;
52015;SDS011;38032;53.326;6.472;2023-03-21T06:20:33;13.35;;;9.13;;
52015;SDS011;38032;53.326;6.472;2023-03-21T06:22:59;16.42;;;9.75;;
52015;SDS011;38032;53.326;6.472;2023-03-21T06:25:25;14.68;;;9.23;;
52015;SDS011;38032;53.326;6.472;2023-03-21T06:27:51;16.42;;;10.38;;
52015;SDS011;38032;53.326;6.472;2023-03-21T06:30:17;13.93;;;9.55;;
52015;SDS011;38032;53.326;6.472;2023-03-21T06:32:43;14.60;;;9.48;;
52015;SDS011;38032;53.326;6.472;2023-03-21T06:35:09;13.07;;;8.82;;
52015;SDS011;38032;53.326;6.472;2023-03-21T06:37:35;13.48;;;8.20;;
52015;SDS011;38032;53.326;6.472;2023-03-21T06:40:02;12.13;;;8.30;;
52015;SDS011;38032;53.326;6.472;2023-03-21T06:42:29;15.60;;;8.13;;
52015;SDS011;38032;53.326;6.472;2023-03-21T06:44:56;11.88;;;7.43;;
52015;SDS011;38032;53.326;6.472;2023-03-21T06:47:22;12.43;;;8.43;;
52015;SDS011;38032;53.326;6.472;2023-03-21T06:49:48;13.25;;;7.95;;
52015;SDS011;38032;53.326;6.472;2023-03-21T06:52:15;10.82;;;7.13;;
52015;SDS011;38032;53.326;6.472;2023-03-21T06:54:41;11.65;;;6.25;;
52015;SDS011;38032;53.326;6.472;2023-03-21T06:57:07;11.85;;;7.28;;
52015;SDS011;38032;53.326;6.472;2023-03-21T06:59:33;9.90;;;6.70;;
52015;SDS011;38032;53.326;6.472;2023-03-21T07:02:00;12.45;;;7.13;;
52015;SDS011;38032;53.326;6.472;2023-03-21T07:04:26;12.25;;;8.02;;
52015;SDS011;38032;53.326;6.472;2023-03-21T07:06:52;11.65;;;7.30;;
52015;SDS011;38032;53.326;6.472;2023-03-21T07:09:18;11.45;;;7.25;;
52015;SDS011;38032;53.326;6.472;2023-03-21T07:11:48;11.68;;;7.68;;
52015;SDS011;38032;53.326;6.472;2023-03-21T07:14:18;10.13;;;7.30;;
52015;SDS011;38032;53.326;6.472;2023-03-21T07:16:44;9.63;;;7.10;;
52015;SDS011;38032;53.326;6.472;2023-03-21T07:19:10;10.00;;;7.00;;
52015;SDS011;38032;53.326;6.472;2023-03-21T07:21:35;10.05;;;6.15;;
52015;SDS011;38032;53.326;6.472;2023-03-21T07:24:01;12.10;;;6.20;;
52015;SDS011;38032;53.326;6.472;2023-03-21T07:26:27;11.55;;;7.00;;
52015;SDS011;38032;53.326;6.472;2023-03-21T07:28:53;10.63;;;7.05;;
52015;SDS011;38032;53.326;6.472;2023-03-21T07:31:19;11.35;;;6.38;;
52015;SDS011;38032;53.326;6.472;2023-03-21T07:33:45;9.80;;;6.63;;
52015;SDS011;38032;53.326;6.472;2023-03-21T07:36:12;11.25;;;6.75;;
52015;SDS011;38032;53.326;6.472;2023-03-21T07:38:39;12.38;;;7.03;;
52015;SDS011;38032;53.326;6.472;2023-03-21T07:41:06;8.60;;;6.22;;
52015;SDS011;38032;53.326;6.472;2023-03-21T07:43:32;8.77;;;6.28;;
52015;SDS011;38032;53.326;6.472;2023-03-21T07:45:58;8.25;;;5.85;;
52015;SDS011;38032;53.326;6.472;2023-03-21T07:48:24;9.73;;;6.47;;
52015;SDS011;38032;53.326;6.472;2023-03-21T07:50:50;8.80;;;6.28;;
52015;SDS011;38032;53.326;6.472;2023-03-21T07:53:16;8.48;;;5.60;;
52015;SDS011;38032;53.326;6.472;2023-03-21T07:55:42;8.98;;;5.97;;
52015;SDS011;38032;53.326;6.472;2023-03-21T07:58:08;9.52;;;6.88;;
52015;SDS011;38032;53.326;6.472;2023-03-21T08:00:34;9.45;;;5.68;;
52015;SDS011;38032;53.326;6.472;2023-03-21T08:03:00;8.40;;;5.72;;
52015;SDS011;38032;53.326;6.472;2023-03-21T08:05:27;6.15;;;4.55;;
52015;SDS011;38032;53.326;6.472;2023-03-21T08:07:57;9.02;;;4.97;;
52015;SDS011;38032;53.326;6.472;2023-03-21T08:10:23;9.23;;;5.55;;
52015;SDS011;38032;53.326;6.472;2023-03-21T08:12:49;7.78;;;5.57;;
52015;SDS011;38032;53.326;6.472;2023-03-21T08:15:15;8.63;;;5.95;;
52015;SDS011;38032;53.326;6.472;2023-03-21T08:17:41;7.45;;;4.90;;
52015;SDS011;38032;53.326;6.472;2023-03-21T08:20:10;7.20;;;5.35;;
52015;SDS011;38032;53.326;6.472;2023-03-21T08:22:39;7.95;;;5.50;;
52015;SDS011;38032;53.326;6.472;2023-03-21T08:25:06;7.30;;;5.00;;
52015;SDS011;38032;53.326;6.472;2023-03-21T08:27:35;8.48;;;5.00;;
52015;SDS011;38032;53.326;6.472;2023-03-21T08:30:01;5.65;;;4.57;;
52015;SDS011;38032;53.326;6.472;2023-03-21T08:32:27;7.32;;;4.85;;
52015;SDS011;38032;53.326;6.472;2023-03-21T08:34:57;5.95;;;4.63;;
52015;SDS011;38032;53.326;6.472;2023-03-21T08:37:25;6.35;;;5.00;;
52015;SDS011;38032;53.326;6.472;2023-03-21T08:39:51;7.28;;;5.10;;
52015;SDS011;38032;53.326;6.472;2023-03-21T08:42:17;8.57;;;4.85;;
52015;SDS011;38032;53.326;6.472;2023-03-21T08:44:45;5.65;;;4.53;;
52015;SDS011;38032;53.326;6.472;2023-03-21T08:47:10;6.60;;;4.35;;
52015;SDS011;38032;53.326;6.472;2023-03-21T08:49:36;6.88;;;4.57;;
52015;SDS011;38032;53.326;6.472;2023-03-21T08:52:02;6.00;;;4.70;;
52015;SDS011;38032;53.326;6.472;2023-03-21T08:54:30;5.68;;;4.43;;
52015;SDS011;38032;53.326;6.472;2023-03-21T08:56:56;5.97;;;4.50;;
52015;SDS011;38032;53.326;6.472;2023-03-21T08:59:22;5.85;;;4.10;;
52015;SDS011;38032;53.326;6.472;2023-03-21T09:01:48;5.28;;;4.30;;
52015;SDS011;38032;53.326;6.472;2023-03-21T09:04:14;5.93;;;4.57;;
52015;SDS011;38032;53.326;6.472;2023-03-21T09:06:43;5.90;;;4.68;;
52015;SDS011;38032;53.326;6.472;2023-03-21T09:09:12;5.68;;;4.50;;
52015;SDS011;38032;53.326;6.472;2023-03-21T09:11:38;5.68;;;4.50;;
52015;SDS011;38032;53.326;6.472;2023-03-21T09:14:04;6.20;;;4.80;;
52015;SDS011;38032;53.326;6.472;2023-03-21T09:16:30;6.90;;;5.20;;
52015;SDS011;38032;53.326;6.472;2023-03-21T09:18:57;7.05;;;5.32;;
52015;SDS011;38032;53.326;6.472;2023-03-21T09:21:23;7.80;;;4.95;;
52015;SDS011;38032;53.326;6.472;2023-03-21T09:23:51;6.65;;;5.30;;
52015;SDS011;38032;53.326;6.472;2023-03-21T09:26:20;8.32;;;5.63;;
52015;SDS011;38032;53.326;6.472;2023-03-21T09:28:48;8.48;;;5.85;;
52015;SDS011;38032;53.326;6.472;2023-03-21T09:31:15;9.85;;;6.50;;
52015;SDS011;38032;53.326;6.472;2023-03-21T09:33:47;10.48;;;5.93;;
52015;SDS011;38032;53.326;6.472;2023-03-21T09:36:14;9.93;;;7.03;;
52015;SDS011;38032;53.326;6.472;2023-03-21T09:38:43;9.52;;;6.28;;
52015;SDS011;38032;53.326;6.472;2023-03-21T09:44:00;9.23;;;6.60;;
52015;SDS011;38032;53.326;6.472;2023-03-21T09:46:54;8.80;;;7.03;;
52015;SDS011;38032;53.326;6.472;2023-03-21T09:49:28;12.05;;;8.75;;
52015;SDS011;38032;53.326;6.472;2023-03-21T09:51:59;10.13;;;7.72;;
52015;SDS011;38032;53.326;6.472;2023-03-21T09:54:30;12.32;;;8.38;;
52015;SDS011;38032;53.326;6.472;2023-03-21T09:57:15;9.02;;;6.78;;
52015;SDS011;38032;53.326;6.472;2023-03-21T09:59:54;10.60;;;8.43;;
52015;SDS011;38032;53.326;6.472;2023-03-21T10:05:01;12.70;;;9.77;;
52015;SDS011;38032;53.326;6.472;2023-03-21T10:07:38;12.40;;;9.75;;
52015;SDS011;38032;53.326;6.472;2023-03-21T10:10:09;12.63;;;9.45;;
52015;SDS011;38032;53.326;6.472;2023-03-21T10:12:40;12.82;;;9.77;;
52015;SDS011;38032;53.326;6.472;2023-03-21T10:15:09;11.73;;;9.38;;
52015;SDS011;38032;53.326;6.472;2023-03-21T10:17:40;15.32;;;10.27;;
52015;SDS011;38032;53.326;6.472;2023-03-21T10:22:44;14.65;;;10.82;;
52015;SDS011;38032;53.326;6.472;2023-03-21T10:25:13;13.93;;;9.82;;
52015;SDS011;38032;53.326;6.472;2023-03-21T10:27:44;13.18;;;10.27;;
52015;SDS011;38032;53.326;6.472;2023-03-21T10:30:23;14.45;;;10.70;;
52015;SDS011;38032;53.326;6.472;2023-03-21T10:32:55;12.38;;;9.27;;
52015;SDS011;38032;53.326;6.472;2023-03-21T10:35:23;15.55;;;10.32;;
52015;SDS011;38032;53.326;6.472;2023-03-21T10:37:49;14.85;;;9.48;;
52015;SDS011;38032;53.326;6.472;2023-03-21T10:40:16;14.23;;;10.18;;
52015;SDS011;38032;53.326;6.472;2023-03-21T10:42:42;13.05;;;9.15;;
52015;SDS011;38032;53.326;6.472;2023-03-21T10:45:13;12.40;;;8.88;;
52015;SDS011;38032;53.326;6.472;2023-03-21T10:47:42;15.23;;;9.73;;
52015;SDS011;38032;53.326;6.472;2023-03-21T10:50:12;14.70;;;9.18;;
52015;SDS011;38032;53.326;6.472;2023-03-21T10:52:44;14.02;;;8.50;;
52015;SDS011;38032;53.326;6.472;2023-03-21T10:55:16;12.13;;;8.48;;
52015;SDS011;38032;53.326;6.472;2023-03-21T10:57:52;12.93;;;8.27;;
52015;SDS011;38032;53.326;6.472;2023-03-21T11:00:23;13.65;;;9.07;;
52015;SDS011;38032;53.326;6.472;2023-03-21T11:02:53;14.52;;;9.73;;
52015;SDS011;38032;53.326;6.472;2023-03-21T11:05:22;11.82;;;8.15;;
52015;SDS011;38032;53.326;6.472;2023-03-21T11:07:56;12.75;;;8.60;;
52015;SDS011;38032;53.326;6.472;2023-03-21T11:10:26;10.90;;;8.38;;
52015;SDS011;38032;53.326;6.472;2023-03-21T11:12:55;12.70;;;8.30;;
52015;SDS011;38032;53.326;6.472;2023-03-21T11:18:12;9.57;;;6.60;;
52015;SDS011;38032;53.326;6.472;2023-03-21T11:20:46;13.20;;;8.13;;
52015;SDS011;38032;53.326;6.472;2023-03-21T11:23:15;12.50;;;7.80;;
52015;SDS011;38032;53.326;6.472;2023-03-21T11:25:42;12.23;;;8.65;;
52015;SDS011;38032;53.326;6.472;2023-03-21T11:28:11;13.75;;;8.25;;
52015;SDS011;38032;53.326;6.472;2023-03-21T11:30:51;10.57;;;7.07;;
52015;SDS011;38032;53.326;6.472;2023-03-21T11:33:21;10.35;;;7.45;;
52015;SDS011;38032;53.326;6.472;2023-03-21T11:36:00;14.15;;;8.65;;
52015;SDS011;38032;53.326;6.472;2023-03-21T11:38:42;14.75;;;8.68;;
52015;SDS011;38032;53.326;6.472;2023-03-21T11:41:20;11.77;;;7.43;;
52015;SDS011;38032;53.326;6.472;2023-03-21T11:43:50;14.70;;;8.00;;
52015;SDS011;38032;53.326;6.472;2023-03-21T11:46:21;11.93;;;7.63;;
52015;SDS011;38032;53.326;6.472;2023-03-21T11:48:49;9.82;;;6.88;;
52015;SDS011;38032;53.326;6.472;2023-03-21T11:51:19;11.43;;;7.20;;
52015;SDS011;38032;53.326;6.472;2023-03-21T11:56:26;10.95;;;8.05;;
52015;SDS011;38032;53.326;6.472;2023-03-21T11:59:05;11.45;;;7.22;;
52015;SDS011;38032;53.326;6.472;2023-03-21T12:04:20;12.45;;;7.78;;
52015;SDS011;38032;53.326;6.472;2023-03-21T12:07:07;14.27;;;8.00;;
52015;SDS011;38032;53.326;6.472;2023-03-21T12:12:15;10.05;;;6.75;;
52015;SDS011;38032;53.326;6.472;2023-03-21T12:14:46;11.40;;;7.03;;
52015;SDS011;38032;53.326;6.472;2023-03-21T12:17:24;11.32;;;7.00;;
52015;SDS011;38032;53.326;6.472;2023-03-21T12:20:20;10.90;;;6.95;;
52015;SDS011;38032;53.326;6.472;2023-03-21T12:23:07;13.27;;;7.68;;
52015;SDS011;38032;53.326;6.472;2023-03-21T12:25:39;13.35;;;7.95;;
52015;SDS011;38032;53.326;6.472;2023-03-21T12:28:35;13.23;;;8.30;;
52015;SDS011;38032;53.326;6.472;2023-03-21T12:31:24;12.05;;;8.00;;
52015;SDS011;38032;53.326;6.472;2023-03-21T12:34:19;12.02;;;7.55;;
52015;SDS011;38032;53.326;6.472;2023-03-21T12:37:16;12.02;;;7.35;;
52015;SDS011;38032;53.326;6.472;2023-03-21T12:39:49;11.40;;;7.32;;
52015;SDS011;38032;53.326;6.472;2023-03-21T12:44:55;10.70;;;7.35;;
52015;SDS011;38032;53.326;6.472;2023-03-21T12:47:29;14.43;;;8.10;;
52015;SDS011;38032;53.326;6.472;2023-03-21T12:52:31;15.40;;;7.57;;
52015;SDS011;38032;53.326;6.472;2023-03-21T12:57:52;10.38;;;8.18;;
52015;SDS011;38032;53.326;6.472;2023-03-21T13:02:57;11.88;;;7.53;;
52015;SDS011;38032;53.326;6.472;2023-03-21T13:05:34;16.23;;;7.20;;
52015;SDS011;38032;53.326;6.472;2023-03-21T13:08:10;11.45;;;8.07;;
52015;SDS011;38032;53.326;6.472;2023-03-21T13:10:38;13.15;;;7.90;;
52015;SDS011;38032;53.326;6.472;2023-03-21T13:13:18;13.15;;;7.90;;
52015;SDS011;38032;53.326;6.472;2023-03-21T13:20:56;12.43;;;7.97;;
52015;SDS011;38032;53.326;6.472;2023-03-21T13:23:25;11.98;;;7.93;;
52015;SDS011;38032;53.326;6.472;2023-03-21T13:26:01;13.38;;;7.53;;
52015;SDS011;38032;53.326;6.472;2023-03-21T13:28:28;12.15;;;7.70;;
52015;SDS011;38032;53.326;6.472;2023-03-21T13:31:15;13.00;;;7.30;;
52015;SDS011;38032;53.326;6.472;2023-03-21T13:33:44;11.82;;;7.28;;
52015;SDS011;38032;53.326;6.472;2023-03-21T13:36:14;11.85;;;7.35;;
52015;SDS011;38032;53.326;6.472;2023-03-21T13:38:50;14.95;;;7.90;;
52015;SDS011;38032;53.326;6.472;2023-03-21T13:41:19;11.50;;;6.97;;
52015;SDS011;38032;53.326;6.472;2023-03-21T13:54:00;13.45;;;8.00;;
52015;SDS011;38032;53.326;6.472;2023-03-21T13:56:48;11.52;;;7.63;;
52015;SDS011;38032;53.326;6.472;2023-03-21T13:59:17;11.48;;;7.40;;
52015;SDS011;38032;53.326;6.472;2023-03-21T14:01:58;11.80;;;7.38;;
52015;SDS011;38032;53.326;6.472;2023-03-21T14:04:26;11.35;;;7.57;;
52015;SDS011;38032;53.326;6.472;2023-03-21T14:06:56;13.93;;;8.20;;
52015;SDS011;38032;53.326;6.472;2023-03-21T14:09:27;11.82;;;7.55;;
52015;SDS011;38032;53.326;6.472;2023-03-21T14:11:57;13.90;;;9.02;;
52015;SDS011;38032;53.326;6.472;2023-03-21T14:14:25;9.85;;;7.30;;
52015;SDS011;38032;53.326;6.472;2023-03-21T14:16:57;14.05;;;8.68;;
52015;SDS011;38032;53.326;6.472;2023-03-21T14:19:28;12.07;;;7.57;;
52015;SDS011;38032;53.326;6.472;2023-03-21T14:21:56;14.63;;;8.20;;
52015;SDS011;38032;53.326;6.472;2023-03-21T14:24:23;12.90;;;7.47;;
52015;SDS011;38032;53.326;6.472;2023-03-21T14:26:49;12.77;;;9.00;;
52015;SDS011;38032;53.326;6.472;2023-03-21T14:29:33;9.85;;;7.97;;
52015;SDS011;38032;53.326;6.472;2023-03-21T14:32:00;14.32;;;7.97;;
52015;SDS011;38032;53.326;6.472;2023-03-21T14:34:27;16.05;;;8.27;;
52015;SDS011;38032;53.326;6.472;2023-03-21T14:36:56;11.55;;;8.10;;
52015;SDS011;38032;53.326;6.472;2023-03-21T14:39:23;11.65;;;8.38;;
52015;SDS011;38032;53.326;6.472;2023-03-21T14:41:53;14.20;;;8.95;;
52015;SDS011;38032;53.326;6.472;2023-03-21T14:44:22;21.85;;;9.73;;
52015;SDS011;38032;53.326;6.472;2023-03-21T14:46:58;20.63;;;9.27;;
52015;SDS011;38032;53.326;6.472;2023-03-21T14:49:27;19.92;;;9.48;;
52015;SDS011;38032;53.326;6.472;2023-03-21T14:51:56;21.63;;;9.82;;
52015;SDS011;38032;53.326;6.472;2023-03-21T14:54:24;18.92;;;10.25;;
52015;SDS011;38032;53.326;6.472;2023-03-21T14:56:53;18.70;;;9.52;;
52015;SDS011;38032;53.326;6.472;2023-03-21T14:59:25;19.30;;;10.00;;
52015;SDS011;38032;53.326;6.472;2023-03-21T15:01:55;20.98;;;9.63;;
52015;SDS011;38032;53.326;6.472;2023-03-21T15:04:23;19.25;;;10.32;;
52015;SDS011;38032;53.326;6.472;2023-03-21T15:06:52;18.48;;;11.25;;
52015;SDS011;38032;53.326;6.472;2023-03-21T15:09:23;22.92;;;10.82;;
52015;SDS011;38032;53.326;6.472;2023-03-21T15:11:51;29.30;;;11.27;;
52015;SDS011;38032;53.326;6.472;2023-03-21T15:14:21;28.10;;;10.35;;
52015;SDS011;38032;53.326;6.472;2023-03-21T15:16:51;27.27;;;10.73;;
52015;SDS011;38032;53.326;6.472;2023-03-21T15:19:19;18.98;;;11.02;;
52015;SDS011;38032;53.326;6.472;2023-03-21T15:21:52;24.10;;;11.02;;
52015;SDS011;38032;53.326;6.472;2023-03-21T15:24:24;21.67;;;9.93;;
52015;SDS011;38032;53.326;6.472;2023-03-21T15:26:57;24.08;;;10.50;;
52015;SDS011;38032;53.326;6.472;2023-03-21T15:29:26;25.85;;;10.20;;
52015;SDS011;38032;53.326;6.472;2023-03-21T15:31:53;21.65;;;10.38;;
52015;SDS011;38032;53.326;6.472;2023-03-21T15:34:23;18.40;;;8.98;;
52015;SDS011;38032;53.326;6.472;2023-03-21T15:36:54;16.47;;;10.17;;
52015;SDS011;38032;53.326;6.472;2023-03-21T15:39:22;18.45;;;9.55;;
52015;SDS011;38032;53.326;6.472;2023-03-21T15:42:01;16.45;;;10.30;;
52015;SDS011;38032;53.326;6.472;2023-03-21T15:44:30;19.10;;;9.73;;
52015;SDS011;38032;53.326;6.472;2023-03-21T15:46:57;15.90;;;9.82;;
52015;SDS011;38032;53.326;6.472;2023-03-21T15:52:01;21.92;;;10.35;;
52015;SDS011;38032;53.326;6.472;2023-03-21T15:54:32;17.67;;;10.20;;
52015;SDS011;38032;53.326;6.472;2023-03-21T15:56:59;18.33;;;11.25;;
52015;SDS011;38032;53.326;6.472;2023-03-21T15:59:34;17.63;;;9.77;;